Time;durP1;ratioP1;P1;durP2;ratioP2;P2;SDS_P1;SDS_P2;PMS_P1;PMS_P2;Temp;Humidity;BMP_temperature;BMP_pressure;BME280_temperature;BME280_humidity;BME280_pressure;Samples;Min_cycle;Max_cycle;Signal;HPM_P1;HPM_P2
2021/07/19 00:01:54;;;;;;;20.60;13.98;;;26.90;76.00;;;;;;4995325;28;20018;-72
2021/07/19 00:04:20;;;;;;;21.88;14.25;;;26.80;76.10;;;;;;4995370;28;20025;-72
2021/07/19 00:06:46;;;;;;;24.15;14.15;;;26.80;76.30;;;;;;4995242;28;20019;-72
2021/07/19 00:09:13;;;;;;;26.65;13.95;;;26.80;76.40;;;;;;4995292;28;20106;-72
2021/07/19 00:11:39;;;;;;;21.83;14.20;;;26.80;76.60;;;;;;4995274;28;20029;-71
2021/07/19 00:14:06;;;;;;;23.15;15.07;;;26.80;76.80;;;;;;4995389;28;20197;-72
2021/07/19 00:16:31;;;;;;;24.90;14.95;;;26.80;77.00;;;;;;4995066;28;20066;-72
2021/07/19 00:18:57;;;;;;;24.00;14.40;;;26.70;77.10;;;;;;4995056;28;20025;-72
2021/07/19 00:21:23;;;;;;;19.92;14.45;;;26.70;77.20;;;;;;4995033;28;20026;-73
2021/07/19 00:23:49;;;;;;;21.30;14.88;;;26.70;77.30;;;;;;4995012;28;20400;-72
2021/07/19 00:26:19;;;;;;;19.58;14.95;;;26.60;77.50;;;;;;4994988;28;20106;-72
2021/07/19 00:28:45;;;;;;;23.25;15.65;;;26.60;77.80;;;;;;4994879;28;20101;-73
2021/07/19 00:31:11;;;;;;;22.40;16.00;;;26.60;78.00;;;;;;4994725;28;20405;-72
2021/07/19 00:33:37;;;;;;;27.13;16.20;;;26.60;78.20;;;;;;4994820;28;20087;-72
2021/07/19 00:36:03;;;;;;;25.02;15.50;;;26.50;78.40;;;;;;4994640;28;20022;-73
2021/07/19 00:38:29;;;;;;;21.85;13.88;;;26.50;78.30;;;;;;4994719;28;20049;-72
2021/07/19 00:40:54;;;;;;;23.98;15.73;;;26.50;78.20;;;;;;4994526;28;20066;-73
2021/07/19 00:43:20;;;;;;;27.88;15.55;;;26.50;78.20;;;;;;4994627;28;20076;-72
2021/07/19 00:45:46;;;;;;;23.23;15.88;;;26.50;78.40;;;;;;4994532;28;20026;-72
2021/07/19 00:48:12;;;;;;;23.27;15.40;;;26.50;78.60;;;;;;4993329;28;20027;-72
2021/07/19 00:50:39;;;;;;;22.77;16.48;;;26.40;78.70;;;;;;4994299;28;20081;-72
2021/07/19 00:53:09;;;;;;;21.75;16.15;;;26.40;78.80;;;;;;4994653;28;20500;-72
2021/07/19 00:55:41;;;;;;;23.20;15.45;;;26.40;78.80;;;;;;4994477;28;20179;-72
2021/07/19 00:58:08;;;;;;;22.33;15.50;;;26.40;79.00;;;;;;4994362;28;20156;-73
2021/07/19 01:00:37;;;;;;;29.75;16.05;;;26.40;79.10;;;;;;4994303;28;20498;-73
2021/07/19 01:03:06;;;;;;;23.88;15.52;;;26.30;79.10;;;;;;4994296;28;20029;-73
2021/07/19 01:05:35;;;;;;;27.90;15.30;;;26.30;79.30;;;;;;4994444;28;20026;-73
2021/07/19 01:08:02;;;;;;;23.88;15.75;;;26.30;79.30;;;;;;4994570;28;20057;-73
2021/07/19 01:10:28;;;;;;;25.55;15.75;;;26.30;79.40;;;;;;4994293;28;20404;-73
2021/07/19 01:12:55;;;;;;;23.75;15.50;;;26.30;79.40;;;;;;4993897;28;20080;-73
2021/07/19 01:15:25;;;;;;;25.20;16.65;;;26.30;79.60;;;;;;4994021;28;20613;-73
2021/07/19 01:17:52;;;;;;;24.38;16.75;;;26.30;79.50;;;;;;4993959;28;20026;-73
2021/07/19 01:20:22;;;;;;;27.38;17.77;;;26.30;79.60;;;;;;4993882;28;20034;-73
2021/07/19 01:23:14;;;;;;;25.00;17.23;;;26.30;79.60;;;;;;4994216;28;20018;-73
2021/07/19 01:25:58;;;;;;;32.95;19.35;;;26.30;79.60;;;;;;4976468;28;20027;-73
2021/07/19 01:28:36;;;;;;;25.70;18.88;;;26.30;79.50;;;;;;4993865;28;20469;-73
2021/07/19 01:31:08;;;;;;;27.58;18.38;;;26.20;79.50;;;;;;4993668;28;20068;-73
2021/07/19 01:33:35;;;;;;;28.77;18.13;;;26.20;79.60;;;;;;4993909;28;20018;-73
2021/07/19 01:36:02;;;;;;;29.08;18.92;;;26.20;79.60;;;;;;4993837;28;20065;-73
2021/07/19 01:38:28;;;;;;;29.13;19.40;;;26.20;79.60;;;;;;4976496;28;20554;-73
2021/07/19 01:40:57;;;;;;;26.88;18.17;;;26.20;79.60;;;;;;4993728;28;20033;-74
2021/07/19 01:43:24;;;;;;;26.55;17.65;;;26.10;79.60;;;;;;4993749;28;20033;-74
2021/07/19 01:45:50;;;;;;;27.05;17.98;;;26.10;79.60;;;;;;4994119;28;20097;-73
2021/07/19 01:48:18;;;;;;;30.13;19.45;;;26.00;79.50;;;;;;4994342;28;20034;-73
2021/07/19 01:50:44;;;;;;;32.10;19.52;;;26.00;79.60;;;;;;4993826;28;20508;-74
2021/07/19 01:53:11;;;;;;;25.83;18.63;;;25.90;79.70;;;;;;4994285;28;20026;-73
2021/07/19 01:55:37;;;;;;;24.92;18.92;;;25.90;79.90;;;;;;4993813;28;20068;-73
2021/07/19 01:58:04;;;;;;;27.63;18.40;;;25.90;80.20;;;;;;4993618;28;20050;-74
2021/07/19 02:00:30;;;;;;;28.60;19.25;;;25.80;80.40;;;;;;4993186;28;20036;-73
2021/07/19 02:02:56;;;;;;;26.27;18.33;;;25.80;80.60;;;;;;4993579;28;20033;-74
2021/07/19 02:05:24;;;;;;;28.25;19.17;;;25.80;80.80;;;;;;4993558;28;20145;-74
2021/07/19 02:07:54;;;;;;;22.98;18.85;;;25.80;80.90;;;;;;4993526;28;20094;-74
2021/07/19 02:10:20;;;;;;;26.13;19.20;;;25.80;81.10;;;;;;4993593;28;20033;-74
2021/07/19 02:12:47;;;;;;;25.73;18.95;;;25.80;81.20;;;;;;4993463;28;20108;-74
2021/07/19 02:15:15;;;;;;;31.13;20.23;;;25.80;81.30;;;;;;4993472;28;20096;-74
2021/07/19 02:17:54;;;;;;;26.75;18.85;;;25.80;81.40;;;;;;4993214;28;20026;-74
2021/07/19 02:20:22;;;;;;;27.25;19.88;;;25.80;81.50;;;;;;4993536;28;20492;-74
2021/07/19 02:22:48;;;;;;;34.28;20.23;;;25.90;81.60;;;;;;4993816;28;20034;-73
2021/07/19 02:25:15;;;;;;;25.58;18.88;;;25.90;81.60;;;;;;4993431;28;20069;-72
2021/07/19 02:27:44;;;;;;;26.65;18.88;;;26.00;81.70;;;;;;4993087;28;20035;-72
2021/07/19 02:30:13;;;;;;;28.60;18.85;;;26.00;81.70;;;;;;4992788;28;20415;-73
2021/07/19 02:32:45;;;;;;;29.73;18.92;;;26.20;81.60;;;;;;4992835;28;20436;-72
2021/07/19 02:35:13;;;;;;;30.15;18.58;;;26.40;81.30;;;;;;4975294;28;20030;-73
2021/07/19 02:37:41;;;;;;;28.48;18.98;;;26.60;80.90;;;;;;4992648;28;20033;-73
2021/07/19 02:40:08;;;;;;;30.65;18.80;;;26.90;80.20;;;;;;4994131;28;20413;-77
2021/07/19 02:42:36;;;;;;;36.83;25.13;;;27.10;79.50;;;;;;4994143;28;20026;-78
2021/07/19 02:45:14;;;;;;;29.40;19.05;;;27.50;78.70;;;;;;4976425;28;20428;-77
2021/07/19 02:47:42;;;;;;;23.50;18.75;;;27.90;77.70;;;;;;4993318;28;20029;-77
2021/07/19 02:50:09;;;;;;;34.85;19.27;;;28.30;76.70;;;;;;4993851;28;20042;-77
2021/07/19 02:52:37;;;;;;;26.73;18.67;;;28.70;75.70;;;;;;4994116;28;20026;-76
2021/07/19 02:55:05;;;;;;;25.02;17.88;;;29.20;74.70;;;;;;4993890;28;20026;-77
2021/07/19 02:57:31;;;;;;;22.45;17.70;;;29.60;73.60;;;;;;4994053;28;20026;-79
2021/07/19 03:00:00;;;;;;;27.08;17.83;;;30.00;72.50;;;;;;4993839;28;20381;-77
2021/07/19 03:02:25;;;;;;;26.85;18.67;;;30.50;71.00;;;;;;4993143;28;20014;-77
2021/07/19 03:04:55;;;;;;;32.97;21.73;;;31.00;70.00;;;;;;4992886;28;20377;-78
2021/07/19 03:07:23;;;;;;;24.98;18.75;;;31.50;68.70;;;;;;4993674;28;20061;-77
2021/07/19 03:09:53;;;;;;;24.20;17.63;;;32.10;67.30;;;;;;4976473;28;20069;-77
2021/07/19 03:12:22;;;;;;;23.02;17.83;;;32.60;66.10;;;;;;4995279;28;20146;-77
2021/07/19 03:14:49;;;;;;;23.85;18.02;;;33.10;64.90;;;;;;4997012;28;20109;-77
2021/07/19 03:17:18;;;;;;;21.45;17.13;;;33.60;63.70;;;;;;4997758;28;20034;-77
2021/07/19 03:19:47;;;;;;;26.75;17.90;;;34.20;62.50;;;;;;4997723;28;20076;-77
2021/07/19 03:22:15;;;;;;;27.45;18.33;;;34.70;61.40;;;;;;4997323;28;20030;-77
2021/07/19 03:24:44;;;;;;;23.90;17.33;;;35.30;60.50;;;;;;4996669;28;20023;-76
2021/07/19 03:27:10;;;;;;;19.17;16.73;;;35.80;59.50;;;;;;4996809;28;20026;-78
2021/07/19 03:29:36;;;;;;;26.83;16.98;;;36.30;58.60;;;;;;4996848;28;20037;-77
2021/07/19 03:32:04;;;;;;;24.70;18.05;;;36.80;57.60;;;;;;4996788;28;20025;-77
2021/07/19 03:34:31;;;;;;;22.48;16.75;;;37.30;56.40;;;;;;4996728;28;20018;-77
2021/07/19 03:36:57;;;;;;;22.48;16.90;;;37.80;55.60;;;;;;4996838;28;20026;-77
2021/07/19 03:39:23;;;;;;;25.25;16.45;;;38.30;55.40;;;;;;4997259;28;20034;-77
2021/07/19 03:41:50;;;;;;;21.25;17.35;;;38.80;54.00;;;;;;4997118;28;20126;-77
2021/07/19 03:44:16;;;;;;;20.20;16.98;;;39.20;53.00;;;;;;4996962;28;20022;-78
2021/07/19 03:46:44;;;;;;;21.45;16.50;;;39.60;52.90;;;;;;4996809;28;20097;-78
2021/07/19 03:49:14;;;;;;;22.92;16.55;;;40.20;51.60;;;;;;4996595;28;20018;-77
2021/07/19 03:51:46;;;;;;;20.80;15.15;;;40.70;50.70;;;;;;4996385;28;20086;-78
2021/07/19 03:54:11;;;;;;;23.23;16.33;;;41.10;50.50;;;;;;4996249;28;20035;-77
2021/07/19 03:56:39;;;;;;;21.83;15.07;;;41.50;49.50;;;;;;4995608;28;20041;-77
2021/07/19 03:59:06;;;;;;;23.35;14.95;;;41.90;48.70;;;;;;4995551;28;20101;-76
2021/07/19 04:01:35;;;;;;;20.05;14.43;;;42.30;48.00;;;;;;4995623;28;20100;-75
2021/07/19 04:04:09;;;;;;;19.38;14.25;;;42.30;47.50;;;;;;4995156;28;20024;-76
2021/07/19 04:06:38;;;;;;;22.10;14.13;;;42.40;47.20;;;;;;4995253;28;20549;-76
2021/07/19 04:09:05;;;;;;;17.25;12.93;;;42.70;46.90;;;;;;4995134;28;20115;-76
2021/07/19 04:11:32;;;;;;;21.33;13.70;;;43.20;46.50;;;;;;4994894;28;20023;-77
2021/07/19 04:13:58;;;;;;;20.63;13.57;;;43.50;45.90;;;;;;4994526;28;20123;-77
2021/07/19 04:16:24;;;;;;;20.40;12.25;;;43.90;45.10;;;;;;4994354;28;20089;-76
2021/07/19 04:18:51;;;;;;;19.88;12.60;;;44.20;44.30;;;;;;4995018;28;20092;-77
2021/07/19 04:21:20;;;;;;;15.15;11.80;;;44.50;43.40;;;;;;4994819;28;20110;-76
2021/07/19 04:23:47;;;;;;;13.50;11.25;;;44.50;43.10;;;;;;4994450;28;20402;-78
2021/07/19 04:26:14;;;;;;;23.60;11.50;;;44.60;43.10;;;;;;4994910;28;20026;-78
2021/07/19 04:28:41;;;;;;;16.52;11.32;;;44.90;42.70;;;;;;4994984;28;20442;-77
2021/07/19 04:31:07;;;;;;;18.52;13.00;;;45.30;42.30;;;;;;4994493;28;20370;-76
2021/07/19 04:33:33;;;;;;;25.70;12.90;;;45.60;41.80;;;;;;4994553;28;20046;-77
2021/07/19 04:35:59;;;;;;;20.30;10.88;;;46.00;41.40;;;;;;4994679;28;20026;-78
2021/07/19 04:38:25;;;;;;;17.30;11.70;;;46.30;40.70;;;;;;4998621;28;20030;-77
2021/07/19 04:40:56;;;;;;;16.52;10.80;;;46.40;40.40;;;;;;4994231;28;20499;-77
2021/07/19 04:43:23;;;;;;;14.18;10.25;;;46.80;40.10;;;;;;4994382;28;20048;-77
2021/07/19 04:45:50;;;;;;;19.95;11.13;;;46.90;39.40;;;;;;4994206;28;20019;-77
2021/07/19 04:48:17;;;;;;;13.93;10.25;;;46.70;39.20;;;;;;4994397;28;20469;-77
2021/07/19 04:50:47;;;;;;;15.85;11.05;;;46.80;39.50;;;;;;4994285;28;20058;-78
2021/07/19 04:53:13;;;;;;;18.15;11.07;;;46.80;39.00;;;;;;4994193;28;20049;-78
2021/07/19 04:55:44;;;;;;;12.70;10.25;;;46.70;39.10;;;;;;4994230;28;20033;-78
2021/07/19 04:58:14;;;;;;;17.77;10.38;;;46.90;38.80;;;;;;4994308;28;20029;-77
2021/07/19 05:00:41;;;;;;;26.95;11.27;;;47.20;38.60;;;;;;4994106;28;20027;-77
2021/07/19 05:03:09;;;;;;;23.10;10.38;;;47.40;38.40;;;;;;4994003;28;20493;-77
2021/07/19 05:05:36;;;;;;;14.25;10.25;;;47.60;39.10;;;;;;4993539;28;20022;-76
2021/07/19 05:08:03;;;;;;;15.80;11.20;;;47.70;38.30;;;;;;4976040;28;20034;-77
2021/07/19 05:10:29;;;;;;;19.10;11.30;;;47.90;38.00;;;;;;4993234;28;20030;-77
2021/07/19 05:12:55;;;;;;;18.20;11.30;;;48.10;37.50;;;;;;4993105;28;20482;-76
2021/07/19 05:15:22;;;;;;;15.75;12.93;;;48.40;37.60;;;;;;4993084;28;20480;-76
2021/07/19 05:17:48;;;;;;;26.85;16.83;;;48.70;37.20;;;;;;4993120;28;20109;-77
2021/07/19 05:20:17;;;;;;;17.95;11.48;;;49.10;37.00;;;;;;4993129;28;20026;-76
2021/07/19 05:22:47;;;;;;;18.13;10.65;;;49.30;36.80;;;;;;4993424;28;20030;-76
2021/07/19 05:25:15;;;;;;;18.98;11.50;;;49.40;36.70;;;;;;4992885;28;20027;-76
2021/07/19 05:27:59;;;;;;;23.77;12.88;;;49.50;36.70;;;;;;4993400;28;20023;-76
2021/07/19 05:30:26;;;;;;;16.77;11.95;;;49.60;36.40;;;;;;4993373;28;20095;-77
2021/07/19 05:32:52;;;;;;;21.48;12.55;;;49.70;36.50;;;;;;4993256;28;20034;-77
2021/07/19 05:35:18;;;;;;;23.15;11.23;;;49.80;36.30;;;;;;4992095;28;20076;-76
2021/07/19 05:37:44;;;;;;;15.77;11.30;;;50.00;36.30;;;;;;4975460;28;20034;-77
2021/07/19 05:40:11;;;;;;;25.85;11.35;;;50.10;36.00;;;;;;4975851;28;20085;-78
2021/07/19 05:42:39;;;;;;;20.30;11.07;;;50.20;35.90;;;;;;4993110;28;20368;-80
2021/07/19 05:45:05;;;;;;;20.23;12.18;;;50.00;35.90;;;;;;4994375;28;20014;-82
2021/07/19 05:47:31;;;;;;;22.63;11.25;;;50.20;35.90;;;;;;4994071;28;20030;-81
2021/07/19 05:49:57;;;;;;;18.83;12.02;;;50.20;35.90;;;;;;4993873;28;20349;-82
2021/07/19 05:52:22;;;;;;;21.58;11.50;;;50.10;35.70;;;;;;4993357;28;20038;-82
2021/07/19 05:54:48;;;;;;;16.33;10.90;;;49.90;35.60;;;;;;4976353;28;20124;-83
2021/07/19 05:57:14;;;;;;;17.42;11.13;;;49.80;35.40;;;;;;4993731;28;20469;-82
2021/07/19 05:59:39;;;;;;;19.27;11.02;;;49.80;35.40;;;;;;4993993;28;20022;-82
2021/07/19 06:02:06;;;;;;;19.70;10.73;;;50.00;35.10;;;;;;4993129;28;20057;-82
2021/07/19 06:04:31;;;;;;;19.88;11.57;;;50.10;35.20;;;;;;4993603;28;20707;-80
2021/07/19 06:06:57;;;;;;;19.25;10.73;;;50.20;35.20;;;;;;4993503;28;20018;-81
2021/07/19 06:09:23;;;;;;;16.30;12.27;;;50.30;35.00;;;;;;4993579;28;20023;-82
2021/07/19 06:11:48;;;;;;;17.13;11.75;;;50.40;34.80;;;;;;4993108;28;20108;-81
2021/07/19 06:14:14;;;;;;;26.52;11.52;;;50.60;34.70;;;;;;4993736;28;20030;-82
2021/07/19 06:16:40;;;;;;;34.67;12.40;;;50.60;34.60;;;;;;4995780;28;20074;-82
2021/07/19 06:19:06;;;;;;;16.15;11.32;;;50.40;34.70;;;;;;4979022;28;20034;-81
2021/07/19 06:21:32;;;;;;;20.13;11.85;;;50.20;34.80;;;;;;4978910;28;20030;-81
2021/07/19 06:23:57;;;;;;;21.77;12.15;;;50.00;34.70;;;;;;4995588;28;20054;-82
2021/07/19 06:26:24;;;;;;;19.70;11.02;;;49.90;34.60;;;;;;4993959;28;20029;-83
2021/07/19 06:28:49;;;;;;;18.63;11.93;;;50.00;34.80;;;;;;4993858;28;20072;-83
2021/07/19 06:31:15;;;;;;;19.17;10.85;;;50.00;34.90;;;;;;4993033;28;20441;-83
2021/07/19 06:33:41;;;;;;;18.13;10.32;;;50.20;34.90;;;;;;4993248;28;20027;-80
2021/07/19 06:36:07;;;;;;;18.80;11.85;;;50.30;34.60;;;;;;4992599;28;20472;-72
2021/07/19 06:38:33;;;;;;;24.92;11.98;;;50.30;34.40;;;;;;4991760;28;20026;-73
2021/07/19 06:40:58;;;;;;;14.98;10.88;;;50.40;34.50;;;;;;4991653;28;20479;-72
2021/07/19 06:43:24;;;;;;;19.15;11.13;;;50.20;34.60;;;;;;4991955;28;20404;-73
2021/07/19 06:45:50;;;;;;;18.20;11.88;;;50.40;34.60;;;;;;4992200;28;20469;-72
2021/07/19 06:48:16;;;;;;;17.63;11.38;;;50.40;34.30;;;;;;4991502;28;20027;-72
2021/07/19 06:50:42;;;;;;;15.02;10.30;;;50.50;34.30;;;;;;4990241;28;20046;-73
2021/07/19 06:53:08;;;;;;;19.67;10.63;;;50.40;33.90;;;;;;4990577;28;20069;-73
2021/07/19 06:55:34;;;;;;;13.68;10.52;;;50.50;33.80;;;;;;4990765;28;20463;-73
2021/07/19 06:58:00;;;;;;;19.08;11.38;;;50.70;33.60;;;;;;4990435;28;20058;-73
2021/07/19 07:00:26;;;;;;;16.90;10.43;;;50.70;33.50;;;;;;4991149;28;20368;-74
2021/07/19 07:02:51;;;;;;;20.17;10.73;;;50.80;33.30;;;;;;4990416;28;20076;-73
2021/07/19 07:05:17;;;;;;;17.98;10.10;;;50.90;33.20;;;;;;4990677;28;20531;-70
2021/07/19 07:07:44;;;;;;;12.98;9.40;;;51.00;32.70;;;;;;4990613;28;20030;-71
2021/07/19 07:10:13;;;;;;;14.57;9.40;;;51.10;32.50;;;;;;4990456;28;20061;-73
2021/07/19 07:12:42;;;;;;;12.32;9.10;;;51.20;32.10;;;;;;4990340;28;20034;-71
2021/07/19 07:15:09;;;;;;;11.18;9.55;;;51.20;32.10;;;;;;4990385;28;20358;-72
2021/07/19 07:17:35;;;;;;;13.50;9.25;;;51.20;32.20;;;;;;4990662;28;20113;-71
2021/07/19 07:20:01;;;;;;;15.57;9.43;;;51.00;32.00;;;;;;4990039;28;20480;-71
2021/07/19 07:22:26;;;;;;;13.10;9.60;;;51.00;32.30;;;;;;4990406;28;20022;-72
2021/07/19 07:24:52;;;;;;;10.50;9.25;;;50.70;32.20;;;;;;4990527;28;20026;-71
2021/07/19 07:27:19;;;;;;;14.90;10.35;;;50.70;32.40;;;;;;4990460;28;20029;-72
2021/07/19 07:29:46;;;;;;;18.17;9.40;;;50.50;32.40;;;;;;4988284;28;20029;-71
2021/07/19 07:32:12;;;;;;;10.90;8.90;;;50.40;32.50;;;;;;4990409;28;20101;-72
2021/07/19 07:34:38;;;;;;;17.65;9.55;;;50.40;32.40;;;;;;4990481;28;20030;-72
2021/07/19 07:37:06;;;;;;;13.00;8.70;;;50.30;32.40;;;;;;4990301;28;20469;-72
2021/07/19 07:39:34;;;;;;;17.25;9.30;;;50.20;32.50;;;;;;4990197;28;20116;-72
2021/07/19 07:42:00;;;;;;;15.57;9.20;;;50.10;32.50;;;;;;4990189;28;20033;-72
2021/07/19 07:44:29;;;;;;;17.20;9.40;;;49.90;32.50;;;;;;4990311;28;20019;-72
2021/07/19 07:46:54;;;;;;;15.13;9.10;;;49.60;32.60;;;;;;4990454;28;20023;-72
2021/07/19 07:49:21;;;;;;;15.70;9.75;;;49.40;32.90;;;;;;4990164;28;20030;-72
2021/07/19 07:51:48;;;;;;;14.77;9.68;;;49.20;33.00;;;;;;4990022;28;20146;-72
2021/07/19 07:54:16;;;;;;;17.25;11.35;;;49.00;33.30;;;;;;4990268;28;20154;-73
2021/07/19 07:56:41;;;;;;;20.70;9.30;;;48.90;33.60;;;;;;4990263;28;20025;-72
2021/07/19 07:59:07;;;;;;;13.23;9.38;;;48.80;33.40;;;;;;4993277;28;20019;-82
2021/07/19 08:01:33;;;;;;;16.27;9.10;;;48.70;33.60;;;;;;4994984;28;20033;-79
2021/07/19 08:03:59;;;;;;;14.93;9.00;;;48.50;33.30;;;;;;4995092;28;20031;-79
2021/07/19 08:06:24;;;;;;;14.77;9.80;;;48.40;33.40;;;;;;4993979;28;20376;-83
2021/07/19 08:08:50;;;;;;;18.85;9.90;;;48.00;33.60;;;;;;4994788;28;20081;-84
2021/07/19 08:11:16;;;;;;;12.50;8.65;;;47.80;34.00;;;;;;4994464;28;20058;-82
2021/07/19 08:13:42;;;;;;;16.30;8.60;;;47.40;34.20;;;;;;4994269;28;20026;-83
2021/07/19 08:16:07;;;;;;;16.75;8.90;;;46.90;34.10;;;;;;4994694;28;20030;-84
2021/07/19 08:18:33;;;;;;;13.35;8.18;;;46.60;34.20;;;;;;4994871;28;20022;-83
2021/07/19 08:20:59;;;;;;;15.30;8.60;;;46.30;34.20;;;;;;4994954;28;20030;-82
2021/07/19 08:23:25;;;;;;;16.25;8.90;;;46.00;34.50;;;;;;4994438;28;20029;-83
2021/07/19 08:25:51;;;;;;;15.23;8.68;;;45.80;34.80;;;;;;4994166;28;20057;-83
2021/07/19 08:28:19;;;;;;;18.38;10.52;;;45.50;35.10;;;;;;4994318;28;20050;-82
2021/07/19 08:30:45;;;;;;;14.52;8.80;;;45.30;35.50;;;;;;4992172;28;20380;-86
2021/07/19 08:33:11;;;;;;;17.30;8.60;;;45.10;35.50;;;;;;4976869;28;20022;-84
2021/07/19 08:35:36;;;;;;;15.82;10.23;;;44.80;35.60;;;;;;4994085;28;20212;-84
2021/07/19 08:38:03;;;;;;;20.58;8.40;;;44.40;35.80;;;;;;4994244;28;20030;-85
2021/07/19 08:40:29;;;;;;;19.42;9.10;;;44.20;36.00;;;;;;4993321;28;20023;-80
2021/07/19 08:42:55;;;;;;;18.98;9.50;;;44.10;36.40;;;;;;4993179;28;20872;-79
2021/07/19 08:45:22;;;;;;;18.45;9.52;;;44.00;37.00;;;;;;4992863;28;20015;-80
2021/07/19 08:47:51;;;;;;;20.95;9.82;;;43.90;37.10;;;;;;4975329;28;20441;-80
2021/07/19 08:50:19;;;;;;;14.20;10.13;;;43.70;37.20;;;;;;4992763;28;20077;-80
2021/07/19 08:52:54;;;;;;;14.23;9.07;;;43.20;37.50;;;;;;4990385;28;20081;-80
2021/07/19 08:55:21;;;;;;;18.80;10.27;;;42.80;37.80;;;;;;4992798;28;20142;-79
2021/07/19 08:57:50;;;;;;;17.77;9.93;;;42.40;38.30;;;;;;4992695;28;20018;-79
2021/07/19 09:00:20;;;;;;;14.45;9.38;;;42.20;38.70;;;;;;4992734;28;20026;-78
2021/07/19 09:02:46;;;;;;;17.77;8.90;;;41.90;38.60;;;;;;4990958;28;20078;-79
2021/07/19 09:05:12;;;;;;;22.38;10.00;;;41.70;38.70;;;;;;4976553;28;20019;-79
2021/07/19 09:07:38;;;;;;;21.55;9.80;;;41.50;39.00;;;;;;4993950;28;20437;-79
2021/07/19 09:10:05;;;;;;;17.58;9.98;;;41.10;39.40;;;;;;4992918;28;20049;-79
2021/07/19 09:12:45;;;;;;;20.08;9.93;;;40.90;39.70;;;;;;4976383;28;20026;-79
2021/07/19 09:15:14;;;;;;;24.77;9.38;;;40.60;39.60;;;;;;4993924;28;20165;-79
2021/07/19 09:17:43;;;;;;;18.25;9.43;;;40.40;40.00;;;;;;4993931;28;20053;-79
2021/07/19 09:20:13;;;;;;;19.48;9.60;;;40.30;39.80;;;;;;4993380;28;20026;-80
2021/07/19 09:22:38;;;;;;;16.90;9.23;;;40.10;40.20;;;;;;4976243;28;20510;-81
2021/07/19 09:25:07;;;;;;;14.68;9.10;;;40.00;40.40;;;;;;4993194;28;20023;-79
2021/07/19 09:27:33;;;;;;;19.27;10.05;;;40.10;40.60;;;;;;4992993;28;20026;-81
2021/07/19 09:30:09;;;;;;;21.40;9.73;;;40.10;40.90;;;;;;4993281;28;20040;-81
2021/07/19 09:32:51;;;;;;;13.90;8.25;;;40.10;40.70;;;;;;4992382;28;20471;-80
2021/07/19 09:35:17;;;;;;;17.83;10.02;;;40.10;40.70;;;;;;4992764;28;20057;-80
2021/07/19 09:37:43;;;;;;;18.70;10.40;;;40.00;40.60;;;;;;4992999;28;20038;-79
2021/07/19 09:40:09;;;;;;;23.10;9.88;;;39.90;40.60;;;;;;4992427;28;20057;-79
2021/07/19 09:42:42;;;;;;;14.35;9.38;;;39.80;40.80;;;;;;4993160;28;20026;-79
2021/07/19 09:45:08;;;;;;;12.73;8.95;;;39.70;40.60;;;;;;4992885;28;20694;-79
2021/07/19 09:47:44;;;;;;;16.98;9.95;;;39.70;41.00;;;;;;4992096;28;20097;-80
2021/07/19 09:50:15;;;;;;;13.63;9.23;;;39.60;40.90;;;;;;4992368;28;20043;-79
2021/07/19 09:52:42;;;;;;;20.63;9.90;;;39.50;41.00;;;;;;4992661;28;20018;-79
2021/07/19 09:55:26;;;;;;;18.92;9.77;;;39.40;41.10;;;;;;4992640;28;20030;-80
2021/07/19 09:57:57;;;;;;;22.77;10.80;;;39.50;41.10;;;;;;4992681;28;20380;-81
2021/07/19 10:00:28;;;;;;;14.23;9.38;;;39.50;41.20;;;;;;4992595;28;20029;-80
2021/07/19 10:02:53;;;;;;;17.92;10.60;;;39.50;41.30;;;;;;4992585;28;20060;-79
2021/07/19 10:05:25;;;;;;;15.00;10.30;;;39.60;41.30;;;;;;4975198;28;20035;-78
2021/07/19 10:07:51;;;;;;;18.85;10.68;;;39.60;41.50;;;;;;4992244;28;20042;-80
2021/07/19 10:10:17;;;;;;;18.10;10.13;;;39.60;41.50;;;;;;4992114;28;20102;-79
2021/07/19 10:12:43;;;;;;;18.88;10.38;;;39.60;41.70;;;;;;4991745;28;20129;-80
2021/07/19 10:15:13;;;;;;;18.33;10.88;;;39.60;41.90;;;;;;4992131;28;20374;-78
2021/07/19 10:17:40;;;;;;;19.65;10.63;;;39.50;42.20;;;;;;4991665;28;20034;-79
2021/07/19 10:20:07;;;;;;;15.57;10.68;;;39.20;42.20;;;;;;4991545;28;20030;-78
2021/07/19 10:22:35;;;;;;;19.67;11.93;;;38.80;42.10;;;;;;4991662;28;20065;-78
2021/07/19 10:25:01;;;;;;;21.88;11.77;;;38.40;42.60;;;;;;4992110;28;20505;-78
2021/07/19 10:27:28;;;;;;;24.90;11.00;;;38.00;42.90;;;;;;4975500;28;20034;-78
2021/07/19 10:29:55;;;;;;;16.08;10.20;;;37.80;43.60;;;;;;4995659;28;20026;-79
2021/07/19 10:32:23;;;;;;;16.10;10.32;;;37.80;43.60;;;;;;4992836;28;20388;-79
2021/07/19 10:34:52;;;;;;;20.20;9.63;;;37.70;44.10;;;;;;4992204;28;20061;-78
2021/07/19 10:37:41;;;;;;;17.35;10.68;;;37.70;44.20;;;;;;4991743;28;20022;-78
2021/07/19 10:40:13;;;;;;;18.40;10.88;;;37.70;44.50;;;;;;4991046;28;20081;-82
2021/07/19 10:42:47;;;;;;;17.38;10.93;;;37.40;44.10;;;;;;4991724;28;20022;-78
2021/07/19 10:45:14;;;;;;;15.93;10.70;;;37.30;44.50;;;;;;4991905;28;20030;-78
2021/07/19 10:48:05;;;;;;;17.15;10.25;;;37.30;44.20;;;;;;4991871;28;20029;-79
2021/07/19 10:50:40;;;;;;;22.73;10.75;;;37.30;44.60;;;;;;4973768;28;20050;-79
2021/07/19 10:53:24;;;;;;;19.05;10.93;;;37.40;44.40;;;;;;4991413;28;20027;-77
2021/07/19 10:56:06;;;;;;;21.35;10.52;;;37.50;44.50;;;;;;4991266;28;20030;-79
2021/07/19 10:58:39;;;;;;;24.58;9.65;;;37.50;44.20;;;;;;4991931;28;20030;-77
2021/07/19 11:01:05;;;;;;;26.65;11.63;;;37.50;43.90;;;;;;4991603;28;20457;-79
2021/07/19 11:03:39;;;;;;;18.38;10.02;;;37.40;43.90;;;;;;4991495;28;20026;-78
2021/07/19 11:06:05;;;;;;;16.95;9.98;;;37.30;43.80;;;;;;4990866;28;20054;-78
2021/07/19 11:08:30;;;;;;;14.15;9.57;;;37.40;44.10;;;;;;4991388;28;20057;-80
2021/07/19 11:10:58;;;;;;;18.33;10.85;;;37.40;44.30;;;;;;4991747;28;20516;-79
2021/07/19 11:13:34;;;;;;;17.75;10.43;;;37.40;44.30;;;;;;4991521;28;20408;-81
2021/07/19 11:16:12;;;;;;;20.83;10.20;;;37.40;44.50;;;;;;4990575;28;20486;-79
2021/07/19 11:18:37;;;;;;;21.88;9.43;;;37.50;44.30;;;;;;4990929;28;20101;-79
2021/07/19 11:21:04;;;;;;;22.80;9.70;;;37.40;44.00;;;;;;4991298;28;20113;-79
2021/07/19 11:23:37;;;;;;;22.60;10.35;;;37.40;44.00;;;;;;4991805;28;20018;-79
2021/07/19 11:26:06;;;;;;;22.48;9.68;;;37.30;43.80;;;;;;4991459;28;20026;-78
2021/07/19 11:28:42;;;;;;;16.35;8.88;;;37.20;43.90;;;;;;5006255;28;20089;-78
2021/07/19 11:31:10;;;;;;;20.85;9.70;;;37.20;43.20;;;;;;4991391;28;20113;-79
2021/07/19 11:33:40;;;;;;;18.55;10.18;;;37.10;43.00;;;;;;5008366;28;20092;-79
2021/07/19 11:36:22;;;;;;;27.02;10.32;;;36.90;42.90;;;;;;4995095;28;20023;-78
2021/07/19 11:38:49;;;;;;;17.55;9.15;;;36.80;43.40;;;;;;4994760;28;20121;-80
2021/07/19 11:41:26;;;;;;;23.13;9.55;;;36.70;43.40;;;;;;4994884;28;20041;-80
2021/07/19 11:43:55;;;;;;;16.48;9.32;;;36.50;43.80;;;;;;4977747;28;20401;-80
2021/07/19 11:46:39;;;;;;;21.73;10.27;;;36.40;44.20;;;;;;4995202;28;20484;-78
2021/07/19 11:49:10;;;;;;;115.00;15.73;;;36.30;44.40;;;;;;4995027;28;20098;-79
2021/07/19 11:51:39;;;;;;;82.43;11.10;;;36.10;45.40;;;;;;4995149;28;20425;-80
2021/07/19 11:54:05;;;;;;;59.88;10.57;;;35.70;46.20;;;;;;4994909;28;20030;-80
2021/07/19 11:56:31;;;;;;;59.72;10.25;;;35.20;47.10;;;;;;4994909;28;20494;-78
2021/07/19 11:58:59;;;;;;;30.60;8.57;;;34.70;47.90;;;;;;4994918;28;20369;-82
2021/07/19 12:01:35;;;;;;;37.22;8.32;;;34.20;48.80;;;;;;4995108;28;20038;-80
2021/07/19 12:04:06;;;;;;;31.60;9.45;;;33.80;50.40;;;;;;4995454;28;20022;-81
2021/07/19 12:06:33;;;;;;;33.88;9.52;;;33.50;52.40;;;;;;4994794;28;20109;-79
2021/07/19 12:09:05;;;;;;;24.33;8.93;;;33.10;53.60;;;;;;4994879;28;20065;-79
2021/07/19 12:11:31;;;;;;;23.50;9.40;;;32.70;55.20;;;;;;4995014;28;20030;-79
2021/07/19 12:14:08;;;;;;;28.08;10.63;;;32.20;56.60;;;;;;4976969;28;20034;-80
2021/07/19 12:16:41;;;;;;;23.02;11.55;;;31.80;59.50;;;;;;4994804;28;20092;-77
2021/07/19 12:19:12;;;;;;;31.40;13.68;;;31.30;61.50;;;;;;4994311;28;20034;-78
2021/07/19 12:21:44;;;;;;;32.25;15.20;;;30.70;64.50;;;;;;4994339;28;20026;-77
2021/07/19 12:24:12;;;;;;;23.10;12.15;;;30.00;67.10;;;;;;4994102;28;20050;-78
2021/07/19 12:26:50;;;;;;;25.88;12.35;;;29.40;69.00;;;;;;4994141;28;20105;-78
2021/07/19 12:29:18;;;;;;;24.95;11.43;;;29.00;71.20;;;;;;4993858;28;20388;-78
2021/07/19 12:31:43;;;;;;;20.63;10.70;;;28.60;72.50;;;;;;4993688;28;20031;-76
2021/07/19 12:34:14;;;;;;;21.38;10.55;;;28.50;74.00;;;;;;4994696;28;20463;-80